Strona główna
METAR-TAF:

METAR-TAF

Lotnisko :

Pirassununga, São Paulo, Brazylia

Szerokość geograficzna: 21-59S, Długość geograficzna: 047-20W, wysokość: 597 m

Aktualna obserwacja pogody

Raport powstał 32 minut temu, godzina 19:00 UTC
Wiatr 5 kt od zachodnio-północny zachód
Temperatura 25°C
Wilgotność 32%
Ciśnienie 1018 hPa
Widzialność 10 km lub więcej
Brak chmur poniżej 1500 m i brak chmur cumulonimbus

METAR: SBYS 301900Z 30005KT CAVOK 25/07 Q1018

czas: 16:32 (19:32 UTC)

Prognoza

Raport powstał 4 godziny i 32 minut temu, godzina 15:00 UTC
Prognoza ważna od 30 godzina 18 UTC do 31 godzina 06 UTC
Wiatr 9 kt od północno-północny wschód
Widzialność 10 km lub więcej
Brak chmur poniżej 1500 m i brak chmur cumulonimbus
Stopniowe zmiany
od 30 godzina 22 UTC do 30 godzina 24 UTC
Wiatr kt od północ

TAF: SBYS 301500Z 3018/3106 02009KT CAVOK TX25/3019Z TN07/3105Z BECMG 3022/3024 00000KT RMK PEI

Obserwacja i prognoza pogody dla ponad 4000 lotnisk (raport METAR i TAF).

Dostępne stacje oznaczono żółtymi i czerwonymi punktami na mapie.

Najedź kursorem aby zobaczyć nazwę stacji.

Kliknij aby zobaczyć obserwacje i prognozy pogody.

Aby zmienić mapę: kliknij na zielony przycisk z czarnym krzyżykiem, aby powiększyć; na zielony przycisk z myślnikiem, aby pomniejszyć; na zielone strzałki, aby przejść do map sąsiednich.


METAR-TAF: